sensor_id;sensor_type;location;lat;lon;timestamp;temperature;humidity
20558;DHT22;10437;48.156;11.530;2022-11-15T00:18:37;7.10;99.90
20558;DHT22;10437;48.156;11.530;2022-11-15T00:21:06;7.10;99.90
20558;DHT22;10437;48.156;11.530;2022-11-15T00:31:01;7.10;99.90
20558;DHT22;10437;48.156;11.530;2022-11-15T00:35:59;7.10;99.90
20558;DHT22;10437;48.156;11.530;2022-11-15T00:38:30;7.10;99.90
20558;DHT22;10437;48.156;11.530;2022-11-15T00:48:20;7.00;99.90
20558;DHT22;10437;48.156;11.530;2022-11-15T00:50:48;7.20;99.90
20558;DHT22;10437;48.156;11.530;2022-11-15T01:05:32;6.90;99.90
20558;DHT22;10437;48.156;11.530;2022-11-15T01:22:43;6.70;99.90
20558;DHT22;10437;48.156;11.530;2022-11-15T01:30:05;7.00;99.90
20558;DHT22;10437;48.156;11.530;2022-11-15T01:39:56;6.50;99.90
20558;DHT22;10437;48.156;11.530;2022-11-15T01:44:51;6.60;99.90
20558;DHT22;10437;48.156;11.530;2022-11-15T01:47:23;6.60;99.90
20558;DHT22;10437;48.156;11.530;2022-11-15T01:49:54;6.50;99.90
20558;DHT22;10437;48.156;11.530;2022-11-15T01:52:24;6.60;99.90
20558;DHT22;10437;48.156;11.530;2022-11-15T01:54:56;6.50;99.90
20558;DHT22;10437;48.156;11.530;2022-11-15T02:04:46;6.40;99.90
20558;DHT22;10437;48.156;11.530;2022-11-15T02:07:16;6.40;99.90
20558;DHT22;10437;48.156;11.530;2022-11-15T02:09:44;6.40;99.90
20558;DHT22;10437;48.156;11.530;2022-11-15T02:12:15;6.50;99.90
20558;DHT22;10437;48.156;11.530;2022-11-15T02:14:46;6.60;99.90
20558;DHT22;10437;48.156;11.530;2022-11-15T02:17:31;6.30;99.90
20558;DHT22;10437;48.156;11.530;2022-11-15T02:20:27;6.40;99.90
20558;DHT22;10437;48.156;11.530;2022-11-15T02:26:00;6.40;99.90
20558;DHT22;10437;48.156;11.530;2022-11-15T02:28:50;6.40;99.90
20558;DHT22;10437;48.156;11.530;2022-11-15T02:31:26;6.30;99.90
20558;DHT22;10437;48.156;11.530;2022-11-15T02:33:59;6.30;99.90
20558;DHT22;10437;48.156;11.530;2022-11-15T02:36:36;6.20;99.90
20558;DHT22;10437;48.156;11.530;2022-11-15T02:39:10;6.20;99.90
20558;DHT22;10437;48.156;11.530;2022-11-15T02:41:45;6.20;99.90
20558;DHT22;10437;48.156;11.530;2022-11-15T02:44:18;6.10;99.90
20558;DHT22;10437;48.156;11.530;2022-11-15T02:46:51;6.00;99.90
20558;DHT22;10437;48.156;11.530;2022-11-15T02:49:37;6.10;99.90
20558;DHT22;10437;48.156;11.530;2022-11-15T02:54:34;6.10;99.90
20558;DHT22;10437;48.156;11.530;2022-11-15T02:57:04;6.00;99.90
20558;DHT22;10437;48.156;11.530;2022-11-15T02:59:46;6.10;99.90
20558;DHT22;10437;48.156;11.530;2022-11-15T03:02:27;6.00;99.90
20558;DHT22;10437;48.156;11.530;2022-11-15T03:05:04;6.10;99.90
20558;DHT22;10437;48.156;11.530;2022-11-15T03:07:40;6.00;99.90
20558;DHT22;10437;48.156;11.530;2022-11-15T03:10:13;5.90;99.90
20558;DHT22;10437;48.156;11.530;2022-11-15T03:12:48;5.80;99.90
20558;DHT22;10437;48.156;11.530;2022-11-15T03:15:20;5.80;99.90
20558;DHT22;10437;48.156;11.530;2022-11-15T03:17:52;5.90;99.90
20558;DHT22;10437;48.156;11.530;2022-11-15T03:22:48;5.90;99.90
20558;DHT22;10437;48.156;11.530;2022-11-15T03:25:19;5.90;99.90
20558;DHT22;10437;48.156;11.530;2022-11-15T03:27:51;6.00;99.90
20558;DHT22;10437;48.156;11.530;2022-11-15T03:32:49;5.80;99.90
20558;DHT22;10437;48.156;11.530;2022-11-15T03:35:19;5.90;99.90
20558;DHT22;10437;48.156;11.530;2022-11-15T03:37:51;6.20;99.90
20558;DHT22;10437;48.156;11.530;2022-11-15T03:40:24;5.90;99.90
20558;DHT22;10437;48.156;11.530;2022-11-15T03:42:59;5.90;99.90
20558;DHT22;10437;48.156;11.530;2022-11-15T03:45:31;5.80;99.90
20558;DHT22;10437;48.156;11.530;2022-11-15T03:48:05;5.90;99.90
20558;DHT22;10437;48.156;11.530;2022-11-15T03:57:58;5.70;99.90
20558;DHT22;10437;48.156;11.530;2022-11-15T04:05:21;6.00;99.90
20558;DHT22;10437;48.156;11.530;2022-11-15T04:10:15;6.20;99.90
20558;DHT22;10437;48.156;11.530;2022-11-15T04:12:43;5.80;99.90
20558;DHT22;10437;48.156;11.530;2022-11-15T04:15:14;5.70;99.90
20558;DHT22;10437;48.156;11.530;2022-11-15T04:17:43;5.70;99.90
20558;DHT22;10437;48.156;11.530;2022-11-15T04:20:13;5.70;99.90
20558;DHT22;10437;48.156;11.530;2022-11-15T04:23:00;5.60;99.90
20558;DHT22;10437;48.156;11.530;2022-11-15T04:25:45;5.60;99.90
20558;DHT22;10437;48.156;11.530;2022-11-15T04:38:03;5.60;99.90
20558;DHT22;10437;48.156;11.530;2022-11-15T04:52:51;5.90;99.90
20558;DHT22;10437;48.156;11.530;2022-11-15T04:55:20;5.50;99.90
20558;DHT22;10437;48.156;11.530;2022-11-15T05:00:16;5.50;99.90
20558;DHT22;10437;48.156;11.530;2022-11-15T05:10:24;5.60;99.90
20558;DHT22;10437;48.156;11.530;2022-11-15T05:25:06;5.40;99.90
20558;DHT22;10437;48.156;11.530;2022-11-15T05:27:35;5.30;99.90
20558;DHT22;10437;48.156;11.530;2022-11-15T05:44:48;4.90;99.90
20558;DHT22;10437;48.156;11.530;2022-11-15T05:47:18;5.50;99.90
20558;DHT22;10437;48.156;11.530;2022-11-15T05:49:47;5.30;99.90
20558;DHT22;10437;48.156;11.530;2022-11-15T05:52:17;5.30;99.90
20558;DHT22;10437;48.156;11.530;2022-11-15T05:59:40;5.30;99.90
20558;DHT22;10437;48.156;11.530;2022-11-15T06:02:10;5.50;99.90
20558;DHT22;10437;48.156;11.530;2022-11-15T06:19:21;5.30;99.90
20558;DHT22;10437;48.156;11.530;2022-11-15T06:36:34;5.40;99.90
20558;DHT22;10437;48.156;11.530;2022-11-15T06:43:56;5.30;99.90
20558;DHT22;10437;48.156;11.530;2022-11-15T06:48:51;5.30;99.90
20558;DHT22;10437;48.156;11.530;2022-11-15T06:53:46;5.50;99.90
20558;DHT22;10437;48.156;11.530;2022-11-15T07:01:10;5.30;99.90
20558;DHT22;10437;48.156;11.530;2022-11-15T07:03:39;5.50;99.90
20558;DHT22;10437;48.156;11.530;2022-11-15T07:08:34;5.50;99.90
20558;DHT22;10437;48.156;11.530;2022-11-15T07:11:05;5.50;99.90
20558;DHT22;10437;48.156;11.530;2022-11-15T07:16:02;5.50;99.90
20558;DHT22;10437;48.156;11.530;2022-11-15T07:21:00;5.50;99.90
20558;DHT22;10437;48.156;11.530;2022-11-15T07:25:56;5.70;99.90
20558;DHT22;10437;48.156;11.530;2022-11-15T07:28:24;5.70;99.90
20558;DHT22;10437;48.156;11.530;2022-11-15T07:45:43;6.00;99.90
20558;DHT22;10437;48.156;11.530;2022-11-15T07:48:10;6.00;99.90
20558;DHT22;10437;48.156;11.530;2022-11-15T07:58:02;6.60;99.90
20558;DHT22;10437;48.156;11.530;2022-11-15T08:03:05;7.30;99.90
20558;DHT22;10437;48.156;11.530;2022-11-15T08:05:33;7.70;99.90
20558;DHT22;10437;48.156;11.530;2022-11-15T08:08:01;7.80;99.90
20558;DHT22;10437;48.156;11.530;2022-11-15T08:12:59;8.30;99.90
20558;DHT22;10437;48.156;11.530;2022-11-15T08:15:26;8.20;99.90
20558;DHT22;10437;48.156;11.530;2022-11-15T08:17:54;8.60;99.90
20558;DHT22;10437;48.156;11.530;2022-11-15T08:20:23;8.80;99.90
20558;DHT22;10437;48.156;11.530;2022-11-15T08:25:17;9.20;99.90
20558;DHT22;10437;48.156;11.530;2022-11-15T08:30:12;9.60;99.90
20558;DHT22;10437;48.156;11.530;2022-11-15T08:35:08;9.90;99.90
20558;DHT22;10437;48.156;11.530;2022-11-15T08:37:36;10.10;99.90
20558;DHT22;10437;48.156;11.530;2022-11-15T08:40:04;10.40;99.90
20558;DHT22;10437;48.156;11.530;2022-11-15T08:42:31;10.60;99.90
20558;DHT22;10437;48.156;11.530;2022-11-15T08:44:58;11.10;99.90
20558;DHT22;10437;48.156;11.530;2022-11-15T08:47:25;11.20;99.90
20558;DHT22;10437;48.156;11.530;2022-11-15T08:52:19;11.20;99.90
20558;DHT22;10437;48.156;11.530;2022-11-15T08:54:47;11.60;99.90
20558;DHT22;10437;48.156;11.530;2022-11-15T08:57:14;11.60;99.90
20558;DHT22;10437;48.156;11.530;2022-11-15T08:59:41;11.70;99.90
20558;DHT22;10437;48.156;11.530;2022-11-15T09:02:11;12.10;99.90
20558;DHT22;10437;48.156;11.530;2022-11-15T09:04:39;11.90;99.90
20558;DHT22;10437;48.156;11.530;2022-11-15T09:07:06;11.90;99.90
20558;DHT22;10437;48.156;11.530;2022-11-15T09:09:33;12.10;99.90
20558;DHT22;10437;48.156;11.530;2022-11-15T09:12:02;10.60;99.90
20558;DHT22;10437;48.156;11.530;2022-11-15T09:14:29;12.10;99.90
20558;DHT22;10437;48.156;11.530;2022-11-15T09:26:45;12.60;99.90
20558;DHT22;10437;48.156;11.530;2022-11-15T09:29:13;12.70;99.90
20558;DHT22;10437;48.156;11.530;2022-11-15T09:34:07;12.90;99.90
20558;DHT22;10437;48.156;11.530;2022-11-15T09:44:33;11.90;99.90
20558;DHT22;10437;48.156;11.530;2022-11-15T09:47:17;13.20;99.90
20558;DHT22;10437;48.156;11.530;2022-11-15T09:49:51;13.70;99.90
20558;DHT22;10437;48.156;11.530;2022-11-15T09:52:21;13.20;99.90
20558;DHT22;10437;48.156;11.530;2022-11-15T09:54:50;13.20;99.90
20558;DHT22;10437;48.156;11.530;2022-11-15T09:57:20;13.40;99.90
20558;DHT22;10437;48.156;11.530;2022-11-15T10:00:00;13.50;99.90
20558;DHT22;10437;48.156;11.530;2022-11-15T10:02:39;13.60;99.90
20558;DHT22;10437;48.156;11.530;2022-11-15T10:05:11;13.40;99.90
20558;DHT22;10437;48.156;11.530;2022-11-15T10:07:46;13.60;99.90
20558;DHT22;10437;48.156;11.530;2022-11-15T10:10:22;13.40;99.90
20558;DHT22;10437;48.156;11.530;2022-11-15T10:12:53;13.10;99.90
20558;DHT22;10437;48.156;11.530;2022-11-15T10:15:21;13.70;99.90
20558;DHT22;10437;48.156;11.530;2022-11-15T10:18:07;14.10;99.90
20558;DHT22;10437;48.156;11.530;2022-11-15T10:20:44;14.10;99.90
20558;DHT22;10437;48.156;11.530;2022-11-15T10:23:14;14.50;99.90
20558;DHT22;10437;48.156;11.530;2022-11-15T10:28:13;14.90;99.90
20558;DHT22;10437;48.156;11.530;2022-11-15T10:30:44;15.10;99.90
20558;DHT22;10437;48.156;11.530;2022-11-15T10:33:21;15.30;98.40
20558;DHT22;10437;48.156;11.530;2022-11-15T10:38:16;16.00;99.90
20558;DHT22;10437;48.156;11.530;2022-11-15T10:43:16;15.90;96.50
20558;DHT22;10437;48.156;11.530;2022-11-15T10:45:45;15.60;98.40
20558;DHT22;10437;48.156;11.530;2022-11-15T10:48:23;15.30;96.90
20558;DHT22;10437;48.156;11.530;2022-11-15T10:50:53;14.60;99.90
20558;DHT22;10437;48.156;11.530;2022-11-15T10:53:28;15.00;99.90
20558;DHT22;10437;48.156;11.530;2022-11-15T10:55:57;14.40;99.90
20558;DHT22;10437;48.156;11.530;2022-11-15T10:58:34;13.00;99.90
20558;DHT22;10437;48.156;11.530;2022-11-15T11:01:16;14.30;99.90
20558;DHT22;10437;48.156;11.530;2022-11-15T11:03:45;13.90;99.90
20558;DHT22;10437;48.156;11.530;2022-11-15T11:06:14;13.80;99.90
20558;DHT22;10437;48.156;11.530;2022-11-15T11:08:54;14.00;99.90
20558;DHT22;10437;48.156;11.530;2022-11-15T11:11:21;13.50;99.90
20558;DHT22;10437;48.156;11.530;2022-11-15T11:13:48;13.60;99.90
20558;DHT22;10437;48.156;11.530;2022-11-15T11:16:41;13.30;99.90
20558;DHT22;10437;48.156;11.530;2022-11-15T11:22:09;13.10;99.90
20558;DHT22;10437;48.156;11.530;2022-11-15T11:24:45;13.20;99.90
20558;DHT22;10437;48.156;11.530;2022-11-15T11:27:27;13.10;99.90
20558;DHT22;10437;48.156;11.530;2022-11-15T11:30:06;13.00;99.90
20558;DHT22;10437;48.156;11.530;2022-11-15T11:32:50;13.00;99.90
20558;DHT22;10437;48.156;11.530;2022-11-15T11:35:24;13.10;99.90
20558;DHT22;10437;48.156;11.530;2022-11-15T11:37:56;12.90;99.90
20558;DHT22;10437;48.156;11.530;2022-11-15T11:40:29;12.90;99.90
20558;DHT22;10437;48.156;11.530;2022-11-15T11:43:01;12.90;99.90
20558;DHT22;10437;48.156;11.530;2022-11-15T11:45:47;12.90;99.90
20558;DHT22;10437;48.156;11.530;2022-11-15T11:48:25;13.00;99.90
20558;DHT22;10437;48.156;11.530;2022-11-15T11:51:08;13.10;99.90
20558;DHT22;10437;48.156;11.530;2022-11-15T11:53:40;12.90;99.90
20558;DHT22;10437;48.156;11.530;2022-11-15T11:56:17;13.10;99.90
20558;DHT22;10437;48.156;11.530;2022-11-15T11:58:46;11.80;99.90
20558;DHT22;10437;48.156;11.530;2022-11-15T12:01:17;13.00;99.90
20558;DHT22;10437;48.156;11.530;2022-11-15T12:03:50;13.10;99.90
20558;DHT22;10437;48.156;11.530;2022-11-15T12:06:26;13.10;99.90
20558;DHT22;10437;48.156;11.530;2022-11-15T12:08:58;13.10;99.90
20558;DHT22;10437;48.156;11.530;2022-11-15T12:11:30;13.10;99.90
20558;DHT22;10437;48.156;11.530;2022-11-15T12:14:08;13.20;99.90
20558;DHT22;10437;48.156;11.530;2022-11-15T12:16:35;13.30;99.90
20558;DHT22;10437;48.156;11.530;2022-11-15T12:19:07;13.20;99.90
20558;DHT22;10437;48.156;11.530;2022-11-15T12:21:39;13.30;99.90
20558;DHT22;10437;48.156;11.530;2022-11-15T12:24:13;13.20;99.90
20558;DHT22;10437;48.156;11.530;2022-11-15T12:26:50;13.40;99.90
20558;DHT22;10437;48.156;11.530;2022-11-15T12:29:23;13.20;99.90
20558;DHT22;10437;48.156;11.530;2022-11-15T12:31:54;13.20;99.90
20558;DHT22;10437;48.156;11.530;2022-11-15T12:34:43;13.30;99.90
20558;DHT22;10437;48.156;11.530;2022-11-15T12:40:31;13.30;99.90
20558;DHT22;10437;48.156;11.530;2022-11-15T12:46:02;13.40;99.90
20558;DHT22;10437;48.156;11.530;2022-11-15T12:48:56;13.50;99.40
20558;DHT22;10437;48.156;11.530;2022-11-15T12:54:52;13.50;99.90
20558;DHT22;10437;48.156;11.530;2022-11-15T12:57:46;13.50;99.90
20558;DHT22;10437;48.156;11.530;2022-11-15T13:00:43;13.60;99.90
20558;DHT22;10437;48.156;11.530;2022-11-15T13:03:25;13.60;99.90
20558;DHT22;10437;48.156;11.530;2022-11-15T13:05:58;13.60;99.90
20558;DHT22;10437;48.156;11.530;2022-11-15T13:08:48;12.20;99.90
20558;DHT22;10437;48.156;11.530;2022-11-15T13:14:49;13.40;99.90
20558;DHT22;10437;48.156;11.530;2022-11-15T13:17:31;13.50;99.90
20558;DHT22;10437;48.156;11.530;2022-11-15T13:20:19;13.60;99.90
20558;DHT22;10437;48.156;11.530;2022-11-15T13:22:47;13.60;99.90
20558;DHT22;10437;48.156;11.530;2022-11-15T13:25:23;13.30;99.90
20558;DHT22;10437;48.156;11.530;2022-11-15T13:27:54;13.80;99.90
20558;DHT22;10437;48.156;11.530;2022-11-15T13:30:25;13.50;99.90
20558;DHT22;10437;48.156;11.530;2022-11-15T13:32:53;13.40;99.90
20558;DHT22;10437;48.156;11.530;2022-11-15T13:35:26;13.70;99.90
20558;DHT22;10437;48.156;11.530;2022-11-15T13:37:54;13.60;99.90
20558;DHT22;10437;48.156;11.530;2022-11-15T13:40:24;13.60;99.90
20558;DHT22;10437;48.156;11.530;2022-11-15T13:47:54;13.60;99.90
20558;DHT22;10437;48.156;11.530;2022-11-15T13:50:25;11.40;99.90
20558;DHT22;10437;48.156;11.530;2022-11-15T13:52:55;13.30;99.90
20558;DHT22;10437;48.156;11.530;2022-11-15T13:55:23;13.60;99.90
20558;DHT22;10437;48.156;11.530;2022-11-15T13:57:53;13.40;99.90
20558;DHT22;10437;48.156;11.530;2022-11-15T14:00:28;13.40;99.90
20558;DHT22;10437;48.156;11.530;2022-11-15T14:03:05;13.20;99.90
20558;DHT22;10437;48.156;11.530;2022-11-15T14:08:03;13.30;99.90
20558;DHT22;10437;48.156;11.530;2022-11-15T14:10:32;13.00;99.90
20558;DHT22;10437;48.156;11.530;2022-11-15T14:12:59;13.10;99.90
20558;DHT22;10437;48.156;11.530;2022-11-15T14:15:30;13.40;99.90
20558;DHT22;10437;48.156;11.530;2022-11-15T14:17:59;13.20;99.90
20558;DHT22;10437;48.156;11.530;2022-11-15T14:20:29;13.20;99.90
20558;DHT22;10437;48.156;11.530;2022-11-15T14:22:58;12.90;99.90
20558;DHT22;10437;48.156;11.530;2022-11-15T14:25:26;13.00;99.90
20558;DHT22;10437;48.156;11.530;2022-11-15T14:28:12;13.50;99.90
20558;DHT22;10437;48.156;11.530;2022-11-15T14:30:40;13.10;99.90
20558;DHT22;10437;48.156;11.530;2022-11-15T14:33:20;13.00;99.90
20558;DHT22;10437;48.156;11.530;2022-11-15T14:35:48;13.10;99.90
20558;DHT22;10437;48.156;11.530;2022-11-15T14:38:15;13.00;99.90
20558;DHT22;10437;48.156;11.530;2022-11-15T14:40:42;12.90;99.90
20558;DHT22;10437;48.156;11.530;2022-11-15T14:43:10;13.00;99.90
20558;DHT22;10437;48.156;11.530;2022-11-15T14:45:38;12.90;99.90
20558;DHT22;10437;48.156;11.530;2022-11-15T14:48:05;12.80;99.90
20558;DHT22;10437;48.156;11.530;2022-11-15T14:50:34;12.80;99.90
20558;DHT22;10437;48.156;11.530;2022-11-15T14:55:30;12.80;99.90
20558;DHT22;10437;48.156;11.530;2022-11-15T14:57:58;12.70;99.90
20558;DHT22;10437;48.156;11.530;2022-11-15T15:02:53;12.60;99.90
20558;DHT22;10437;48.156;11.530;2022-11-15T15:05:22;12.40;99.90
20558;DHT22;10437;48.156;11.530;2022-11-15T15:07:51;12.40;99.90
20558;DHT22;10437;48.156;11.530;2022-11-15T15:10:18;12.30;99.90
20558;DHT22;10437;48.156;11.530;2022-11-15T15:12:45;12.20;99.90
20558;DHT22;10437;48.156;11.530;2022-11-15T15:15:14;12.10;99.90
20558;DHT22;10437;48.156;11.530;2022-11-15T15:20:09;12.10;99.90
20558;DHT22;10437;48.156;11.530;2022-11-15T15:25:18;11.90;99.90
20558;DHT22;10437;48.156;11.530;2022-11-15T15:27:46;12.00;99.90
20558;DHT22;10437;48.156;11.530;2022-11-15T15:35:10;11.50;99.90
20558;DHT22;10437;48.156;11.530;2022-11-15T15:37:37;11.70;99.90
20558;DHT22;10437;48.156;11.530;2022-11-15T15:40:12;11.90;99.90
20558;DHT22;10437;48.156;11.530;2022-11-15T15:42:40;11.50;99.90
20558;DHT22;10437;48.156;11.530;2022-11-15T15:45:08;11.60;99.90
20558;DHT22;10437;48.156;11.530;2022-11-15T15:47:35;11.40;99.90
20558;DHT22;10437;48.156;11.530;2022-11-15T15:50:03;11.50;99.90
20558;DHT22;10437;48.156;11.530;2022-11-15T15:52:30;11.50;99.90
20558;DHT22;10437;48.156;11.530;2022-11-15T15:54:57;11.40;99.90
20558;DHT22;10437;48.156;11.530;2022-11-15T15:57:25;11.40;99.90
20558;DHT22;10437;48.156;11.530;2022-11-15T16:02:19;11.20;99.90
20558;DHT22;10437;48.156;11.530;2022-11-15T16:04:46;11.40;99.90
20558;DHT22;10437;48.156;11.530;2022-11-15T16:07:17;11.00;99.90
20558;DHT22;10437;48.156;11.530;2022-11-15T16:12:28;11.20;99.90
20558;DHT22;10437;48.156;11.530;2022-11-15T16:17:24;10.80;99.90
20558;DHT22;10437;48.156;11.530;2022-11-15T16:22:18;10.60;99.90
20558;DHT22;10437;48.156;11.530;2022-11-15T16:27:14;10.60;99.90
20558;DHT22;10437;48.156;11.530;2022-11-15T16:29:43;10.60;99.90
20558;DHT22;10437;48.156;11.530;2022-11-15T16:32:10;10.70;99.90
20558;DHT22;10437;48.156;11.530;2022-11-15T16:34:37;10.70;99.90
20558;DHT22;10437;48.156;11.530;2022-11-15T16:37:05;10.60;99.90
20558;DHT22;10437;48.156;11.530;2022-11-15T16:41:59;10.60;99.90
20558;DHT22;10437;48.156;11.530;2022-11-15T16:44:28;10.60;99.90
20558;DHT22;10437;48.156;11.530;2022-11-15T16:46:56;10.60;99.90
20558;DHT22;10437;48.156;11.530;2022-11-15T16:49:23;10.60;99.90
20558;DHT22;10437;48.156;11.530;2022-11-15T16:54:17;10.50;99.90
20558;DHT22;10437;48.156;11.530;2022-11-15T16:59:15;10.40;99.90
20558;DHT22;10437;48.156;11.530;2022-11-15T17:04:18;10.30;99.90
20558;DHT22;10437;48.156;11.530;2022-11-15T17:06:47;10.30;99.90
20558;DHT22;10437;48.156;11.530;2022-11-15T17:09:16;10.10;99.90
20558;DHT22;10437;48.156;11.530;2022-11-15T17:14:11;10.30;99.90
20558;DHT22;10437;48.156;11.530;2022-11-15T17:16:38;10.10;99.90
20558;DHT22;10437;48.156;11.530;2022-11-15T17:19:11;10.20;99.90
20558;DHT22;10437;48.156;11.530;2022-11-15T17:21:40;10.20;99.90
20558;DHT22;10437;48.156;11.530;2022-11-15T17:24:08;10.10;99.90
20558;DHT22;10437;48.156;11.530;2022-11-15T17:26:35;10.10;99.90
20558;DHT22;10437;48.156;11.530;2022-11-15T17:29:02;10.00;99.90
20558;DHT22;10437;48.156;11.530;2022-11-15T17:33:59;10.10;99.90
20558;DHT22;10437;48.156;11.530;2022-11-15T17:36:26;10.10;99.90
20558;DHT22;10437;48.156;11.530;2022-11-15T17:38:55;10.10;99.90
20558;DHT22;10437;48.156;11.530;2022-11-15T17:41:21;10.10;99.90
20558;DHT22;10437;48.156;11.530;2022-11-15T17:46:17;10.00;99.90
20558;DHT22;10437;48.156;11.530;2022-11-15T17:48:46;10.00;99.90
20558;DHT22;10437;48.156;11.530;2022-11-15T17:51:14;9.90;99.90
20558;DHT22;10437;48.156;11.530;2022-11-15T17:53:43;10.00;99.90
20558;DHT22;10437;48.156;11.530;2022-11-15T17:56:12;10.10;99.90
20558;DHT22;10437;48.156;11.530;2022-11-15T17:58:40;10.00;99.90
20558;DHT22;10437;48.156;11.530;2022-11-15T18:01:08;9.90;99.90
20558;DHT22;10437;48.156;11.530;2022-11-15T18:03:36;9.90;99.90
20558;DHT22;10437;48.156;11.530;2022-11-15T18:06:03;9.90;99.90
20558;DHT22;10437;48.156;11.530;2022-11-15T18:08:30;9.80;99.90
20558;DHT22;10437;48.156;11.530;2022-11-15T18:11:04;9.90;99.90
20558;DHT22;10437;48.156;11.530;2022-11-15T18:13:34;9.80;99.90
20558;DHT22;10437;48.156;11.530;2022-11-15T18:16:02;9.30;99.90
20558;DHT22;10437;48.156;11.530;2022-11-15T18:18:30;9.60;99.90
20558;DHT22;10437;48.156;11.530;2022-11-15T18:21:02;9.60;99.90
20558;DHT22;10437;48.156;11.530;2022-11-15T18:25:57;9.50;99.90
20558;DHT22;10437;48.156;11.530;2022-11-15T18:28:29;9.60;99.90
20558;DHT22;10437;48.156;11.530;2022-11-15T18:30:59;9.60;99.90
20558;DHT22;10437;48.156;11.530;2022-11-15T18:33:27;9.40;99.90
20558;DHT22;10437;48.156;11.530;2022-11-15T18:35:59;9.60;99.90
20558;DHT22;10437;48.156;11.530;2022-11-15T18:38:26;9.60;99.90
20558;DHT22;10437;48.156;11.530;2022-11-15T18:43:22;9.70;99.90
20558;DHT22;10437;48.156;11.530;2022-11-15T18:45:49;9.60;99.90
20558;DHT22;10437;48.156;11.530;2022-11-15T18:48:17;9.70;99.90
20558;DHT22;10437;48.156;11.530;2022-11-15T18:53:11;9.70;99.90
20558;DHT22;10437;48.156;11.530;2022-11-15T18:55:38;9.80;99.90
20558;DHT22;10437;48.156;11.530;2022-11-15T18:58:05;9.90;99.90
20558;DHT22;10437;48.156;11.530;2022-11-15T19:00:31;9.80;99.90
20558;DHT22;10437;48.156;11.530;2022-11-15T19:05:27;9.80;99.90
20558;DHT22;10437;48.156;11.530;2022-11-15T19:07:54;9.90;99.90
20558;DHT22;10437;48.156;11.530;2022-11-15T19:10:20;9.90;99.90
20558;DHT22;10437;48.156;11.530;2022-11-15T19:17:42;9.90;99.90
20558;DHT22;10437;48.156;11.530;2022-11-15T19:20:09;10.00;99.90
20558;DHT22;10437;48.156;11.530;2022-11-15T19:22:37;9.10;99.90
20558;DHT22;10437;48.156;11.530;2022-11-15T19:25:05;9.90;99.90
20558;DHT22;10437;48.156;11.530;2022-11-15T19:27:33;9.90;99.90
20558;DHT22;10437;48.156;11.530;2022-11-15T19:34:54;9.90;99.90
20558;DHT22;10437;48.156;11.530;2022-11-15T19:37:21;9.70;99.90
20558;DHT22;10437;48.156;11.530;2022-11-15T19:39:49;9.80;99.90
20558;DHT22;10437;48.156;11.530;2022-11-15T19:42:16;9.80;99.90
20558;DHT22;10437;48.156;11.530;2022-11-15T19:44:43;9.90;99.90
20558;DHT22;10437;48.156;11.530;2022-11-15T19:49:37;9.80;99.90
20558;DHT22;10437;48.156;11.530;2022-11-15T19:56:59;9.90;99.90
20558;DHT22;10437;48.156;11.530;2022-11-15T20:01:53;9.90;99.90
20558;DHT22;10437;48.156;11.530;2022-11-15T20:09:15;9.90;99.90
20558;DHT22;10437;48.156;11.530;2022-11-15T20:11:42;10.10;99.90
20558;DHT22;10437;48.156;11.530;2022-11-15T20:14:11;9.90;99.90
20558;DHT22;10437;48.156;11.530;2022-11-15T20:16:38;9.80;99.90
20558;DHT22;10437;48.156;11.530;2022-11-15T20:31:28;9.70;99.90
20558;DHT22;10437;48.156;11.530;2022-11-15T20:51:10;9.80;99.90
20558;DHT22;10437;48.156;11.530;2022-11-15T20:56:06;9.80;99.90
20558;DHT22;10437;48.156;11.530;2022-11-15T20:58:33;9.80;99.90
20558;DHT22;10437;48.156;11.530;2022-11-15T21:13:38;10.00;99.90
20558;DHT22;10437;48.156;11.530;2022-11-15T21:16:06;11.80;99.90
20558;DHT22;10437;48.156;11.530;2022-11-15T21:18:34;9.90;99.90
20558;DHT22;10437;48.156;11.530;2022-11-15T21:30:54;9.70;99.90
20558;DHT22;10437;48.156;11.530;2022-11-15T21:33:24;9.90;99.90
20558;DHT22;10437;48.156;11.530;2022-11-15T21:35:53;9.90;99.90
20558;DHT22;10437;48.156;11.530;2022-11-15T21:38:23;9.80;99.90
20558;DHT22;10437;48.156;11.530;2022-11-15T21:40:50;10.30;99.90
20558;DHT22;10437;48.156;11.530;2022-11-15T21:43:18;9.70;99.90
20558;DHT22;10437;48.156;11.530;2022-11-15T21:45:54;9.80;99.90
20558;DHT22;10437;48.156;11.530;2022-11-15T21:48:21;9.80;99.90
20558;DHT22;10437;48.156;11.530;2022-11-15T21:55:49;9.80;99.90
20558;DHT22;10437;48.156;11.530;2022-11-15T21:58:19;9.80;99.90
20558;DHT22;10437;48.156;11.530;2022-11-15T22:00:47;9.20;99.90
20558;DHT22;10437;48.156;11.530;2022-11-15T22:10:55;9.80;99.90
20558;DHT22;10437;48.156;11.530;2022-11-15T22:25:46;9.70;99.90
20558;DHT22;10437;48.156;11.530;2022-11-15T22:28:14;9.80;99.90
20558;DHT22;10437;48.156;11.530;2022-11-15T22:30:43;9.60;99.90
20558;DHT22;10437;48.156;11.530;2022-11-15T22:35:38;9.50;99.90
20558;DHT22;10437;48.156;11.530;2022-11-15T22:45:28;9.50;99.90
20558;DHT22;10437;48.156;11.530;2022-11-15T22:57:44;9.40;99.90
20558;DHT22;10437;48.156;11.530;2022-11-15T23:00:13;9.50;99.90
20558;DHT22;10437;48.156;11.530;2022-11-15T23:02:42;9.30;99.90
20558;DHT22;10437;48.156;11.530;2022-11-15T23:05:09;9.20;99.90
20558;DHT22;10437;48.156;11.530;2022-11-15T23:07:36;9.60;99.90
20558;DHT22;10437;48.156;11.530;2022-11-15T23:12:44;9.10;99.90
20558;DHT22;10437;48.156;11.530;2022-11-15T23:18:18;7.30;99.90
20558;DHT22;10437;48.156;11.530;2022-11-15T23:23:12;9.00;99.90
20558;DHT22;10437;48.156;11.530;2022-11-15T23:28:06;8.90;99.90
20558;DHT22;10437;48.156;11.530;2022-11-15T23:30:33;9.00;99.90
20558;DHT22;10437;48.156;11.530;2022-11-15T23:33:19;8.80;99.90
20558;DHT22;10437;48.156;11.530;2022-11-15T23:36:05;7.70;99.90
20558;DHT22;10437;48.156;11.530;2022-11-15T23:38:32;8.80;99.90
20558;DHT22;10437;48.156;11.530;2022-11-15T23:41:02;8.80;99.90
20558;DHT22;10437;48.156;11.530;2022-11-15T23:45:58;8.80;99.90
20558;DHT22;10437;48.156;11.530;2022-11-15T23:48:27;8.90;99.90
20558;DHT22;10437;48.156;11.530;2022-11-15T23:55:53;8.80;99.90
20558;DHT22;10437;48.156;11.530;2022-11-15T23:58:21;8.90;99.90
